sensor_id;sensor_type;location;lat;lon;timestamp;P1;durP1;ratioP1;P2;durP2;ratioP2
11422;SDS011;5768;51.476;7.210;2023-02-28T00:03:33;4.03;;;2.63;;
11422;SDS011;5768;51.476;7.210;2023-02-28T00:08:36;3.50;;;2.70;;
11422;SDS011;5768;51.476;7.210;2023-02-28T00:13:41;4.43;;;2.90;;
11422;SDS011;5768;51.476;7.210;2023-02-28T00:18:47;3.17;;;2.50;;
11422;SDS011;5768;51.476;7.210;2023-02-28T00:23:50;4.83;;;2.50;;
11422;SDS011;5768;51.476;7.210;2023-02-28T00:28:54;3.17;;;2.77;;
11422;SDS011;5768;51.476;7.210;2023-02-28T00:33:56;2.87;;;2.40;;
11422;SDS011;5768;51.476;7.210;2023-02-28T00:38:58;3.07;;;2.50;;
11422;SDS011;5768;51.476;7.210;2023-02-28T00:44:02;2.63;;;2.43;;
11422;SDS011;5768;51.476;7.210;2023-02-28T00:49:04;4.57;;;2.67;;
11422;SDS011;5768;51.476;7.210;2023-02-28T00:54:06;3.43;;;2.60;;
11422;SDS011;5768;51.476;7.210;2023-02-28T00:59:10;3.70;;;2.37;;
11422;SDS011;5768;51.476;7.210;2023-02-28T01:04:12;3.67;;;2.43;;
11422;SDS011;5768;51.476;7.210;2023-02-28T01:09:15;3.10;;;2.50;;
11422;SDS011;5768;51.476;7.210;2023-02-28T01:14:19;2.80;;;2.50;;
11422;SDS011;5768;51.476;7.210;2023-02-28T01:19:20;3.33;;;2.40;;
11422;SDS011;5768;51.476;7.210;2023-02-28T01:24:26;2.40;;;2.20;;
11422;SDS011;5768;51.476;7.210;2023-02-28T01:29:50;3.90;;;2.03;;
11422;SDS011;5768;51.476;7.210;2023-02-28T01:34:52;3.50;;;2.53;;
11422;SDS011;5768;51.476;7.210;2023-02-28T01:39:54;3.77;;;2.40;;
11422;SDS011;5768;51.476;7.210;2023-02-28T01:44:59;3.80;;;2.30;;
11422;SDS011;5768;51.476;7.210;2023-02-28T01:50:09;3.27;;;2.10;;
11422;SDS011;5768;51.476;7.210;2023-02-28T01:55:18;3.93;;;2.53;;
11422;SDS011;5768;51.476;7.210;2023-02-28T02:00:25;3.63;;;2.10;;
11422;SDS011;5768;51.476;7.210;2023-02-28T02:05:29;2.83;;;2.13;;
11422;SDS011;5768;51.476;7.210;2023-02-28T02:10:35;3.93;;;2.50;;
11422;SDS011;5768;51.476;7.210;2023-02-28T02:15:44;2.33;;;2.00;;
11422;SDS011;5768;51.476;7.210;2023-02-28T02:21:10;3.10;;;2.50;;
11422;SDS011;5768;51.476;7.210;2023-02-28T02:26:58;4.77;;;2.43;;
11422;SDS011;5768;51.476;7.210;2023-02-28T02:32:27;4.27;;;2.60;;
11422;SDS011;5768;51.476;7.210;2023-02-28T02:38:06;2.60;;;2.37;;
11422;SDS011;5768;51.476;7.210;2023-02-28T02:43:19;2.87;;;2.20;;
11422;SDS011;5768;51.476;7.210;2023-02-28T02:48:30;3.37;;;2.17;;
11422;SDS011;5768;51.476;7.210;2023-02-28T02:53:40;4.40;;;2.30;;
11422;SDS011;5768;51.476;7.210;2023-02-28T02:58:49;3.70;;;2.27;;
11422;SDS011;5768;51.476;7.210;2023-02-28T03:03:55;2.50;;;2.30;;
11422;SDS011;5768;51.476;7.210;2023-02-28T03:09:02;3.27;;;2.10;;
11422;SDS011;5768;51.476;7.210;2023-02-28T03:14:15;2.43;;;2.23;;
11422;SDS011;5768;51.476;7.210;2023-02-28T03:19:34;3.20;;;1.80;;
11422;SDS011;5768;51.476;7.210;2023-02-28T03:25:11;3.33;;;2.10;;
11422;SDS011;5768;51.476;7.210;2023-02-28T03:30:22;3.77;;;2.17;;
11422;SDS011;5768;51.476;7.210;2023-02-28T03:35:34;2.90;;;2.33;;
11422;SDS011;5768;51.476;7.210;2023-02-28T03:40:44;3.50;;;2.50;;
11422;SDS011;5768;51.476;7.210;2023-02-28T03:45:51;4.97;;;2.40;;
11422;SDS011;5768;51.476;7.210;2023-02-28T03:50:57;2.33;;;2.07;;
11422;SDS011;5768;51.476;7.210;2023-02-28T03:56:03;3.20;;;2.20;;
11422;SDS011;5768;51.476;7.210;2023-02-28T04:01:15;3.57;;;2.00;;
11422;SDS011;5768;51.476;7.210;2023-02-28T04:06:24;4.20;;;2.57;;
11422;SDS011;5768;51.476;7.210;2023-02-28T04:11:29;3.50;;;2.20;;
11422;SDS011;5768;51.476;7.210;2023-02-28T04:16:38;2.30;;;2.00;;
11422;SDS011;5768;51.476;7.210;2023-02-28T04:21:44;2.47;;;2.10;;
11422;SDS011;5768;51.476;7.210;2023-02-28T04:26:50;2.37;;;2.17;;
11422;SDS011;5768;51.476;7.210;2023-02-28T04:31:55;2.17;;;1.93;;
11422;SDS011;5768;51.476;7.210;2023-02-28T04:36:59;2.33;;;1.93;;
11422;SDS011;5768;51.476;7.210;2023-02-28T04:42:02;2.57;;;2.00;;
11422;SDS011;5768;51.476;7.210;2023-02-28T04:47:04;1.93;;;1.70;;
11422;SDS011;5768;51.476;7.210;2023-02-28T04:52:06;3.13;;;2.10;;
11422;SDS011;5768;51.476;7.210;2023-02-28T04:57:11;3.13;;;2.17;;
11422;SDS011;5768;51.476;7.210;2023-02-28T05:02:13;3.57;;;2.10;;
11422;SDS011;5768;51.476;7.210;2023-02-28T05:07:15;3.67;;;2.00;;
11422;SDS011;5768;51.476;7.210;2023-02-28T05:12:19;3.33;;;2.27;;
11422;SDS011;5768;51.476;7.210;2023-02-28T05:17:21;2.83;;;2.20;;
11422;SDS011;5768;51.476;7.210;2023-02-28T05:22:23;3.03;;;2.00;;
11422;SDS011;5768;51.476;7.210;2023-02-28T05:27:26;2.27;;;1.93;;
11422;SDS011;5768;51.476;7.210;2023-02-28T05:32:29;2.80;;;2.20;;
11422;SDS011;5768;51.476;7.210;2023-02-28T05:37:31;3.90;;;2.20;;
11422;SDS011;5768;51.476;7.210;2023-02-28T05:42:34;4.30;;;2.23;;
11422;SDS011;5768;51.476;7.210;2023-02-28T05:47:37;2.57;;;2.03;;
11422;SDS011;5768;51.476;7.210;2023-02-28T05:52:39;2.57;;;1.93;;
11422;SDS011;5768;51.476;7.210;2023-02-28T05:57:43;3.10;;;2.20;;
11422;SDS011;5768;51.476;7.210;2023-02-28T06:02:46;2.10;;;1.90;;
11422;SDS011;5768;51.476;7.210;2023-02-28T06:07:48;2.43;;;1.97;;
11422;SDS011;5768;51.476;7.210;2023-02-28T06:12:52;2.87;;;2.03;;
11422;SDS011;5768;51.476;7.210;2023-02-28T06:17:54;3.70;;;2.30;;
11422;SDS011;5768;51.476;7.210;2023-02-28T06:22:57;2.87;;;2.50;;
11422;SDS011;5768;51.476;7.210;2023-02-28T06:28:01;3.93;;;2.30;;
11422;SDS011;5768;51.476;7.210;2023-02-28T06:33:03;3.77;;;2.37;;
11422;SDS011;5768;51.476;7.210;2023-02-28T06:38:05;5.73;;;2.40;;
11422;SDS011;5768;51.476;7.210;2023-02-28T06:43:10;3.27;;;2.30;;
11422;SDS011;5768;51.476;7.210;2023-02-28T06:48:13;5.17;;;3.10;;
11422;SDS011;5768;51.476;7.210;2023-02-28T06:53:15;4.47;;;2.80;;
11422;SDS011;5768;51.476;7.210;2023-02-28T06:58:18;3.13;;;2.37;;
11422;SDS011;5768;51.476;7.210;2023-02-28T07:03:21;4.33;;;2.20;;
11422;SDS011;5768;51.476;7.210;2023-02-28T07:08:23;3.23;;;2.27;;
11422;SDS011;5768;51.476;7.210;2023-02-28T07:13:28;3.63;;;2.23;;
11422;SDS011;5768;51.476;7.210;2023-02-28T07:18:31;3.23;;;2.03;;
11422;SDS011;5768;51.476;7.210;2023-02-28T07:23:34;3.30;;;2.10;;
11422;SDS011;5768;51.476;7.210;2023-02-28T07:28:39;2.37;;;2.10;;
11422;SDS011;5768;51.476;7.210;2023-02-28T07:33:42;16.07;;;11.77;;
11422;SDS011;5768;51.476;7.210;2023-02-28T07:38:45;5.50;;;2.57;;
11422;SDS011;5768;51.476;7.210;2023-02-28T07:43:52;3.23;;;2.20;;
11422;SDS011;5768;51.476;7.210;2023-02-28T07:48:55;2.47;;;2.20;;
11422;SDS011;5768;51.476;7.210;2023-02-28T07:53:59;3.50;;;2.30;;
11422;SDS011;5768;51.476;7.210;2023-02-28T07:59:03;2.23;;;1.90;;
11422;SDS011;5768;51.476;7.210;2023-02-28T08:04:05;3.43;;;2.50;;
11422;SDS011;5768;51.476;7.210;2023-02-28T08:09:07;2.27;;;2.07;;
11422;SDS011;5768;51.476;7.210;2023-02-28T08:14:12;3.43;;;2.30;;
11422;SDS011;5768;51.476;7.210;2023-02-28T08:19:16;3.27;;;2.40;;
11422;SDS011;5768;51.476;7.210;2023-02-28T08:24:18;5.60;;;2.33;;
11422;SDS011;5768;51.476;7.210;2023-02-28T08:29:22;2.80;;;2.30;;
11422;SDS011;5768;51.476;7.210;2023-02-28T08:34:24;3.23;;;2.20;;
11422;SDS011;5768;51.476;7.210;2023-02-28T08:39:26;3.93;;;2.50;;
11422;SDS011;5768;51.476;7.210;2023-02-28T08:44:30;3.87;;;2.27;;
11422;SDS011;5768;51.476;7.210;2023-02-28T08:49:32;2.97;;;2.33;;
11422;SDS011;5768;51.476;7.210;2023-02-28T08:54:34;2.67;;;2.40;;
11422;SDS011;5768;51.476;7.210;2023-02-28T08:59:39;2.63;;;2.37;;
11422;SDS011;5768;51.476;7.210;2023-02-28T09:04:42;2.87;;;2.20;;
11422;SDS011;5768;51.476;7.210;2023-02-28T09:09:45;4.37;;;2.20;;
11422;SDS011;5768;51.476;7.210;2023-02-28T09:14:56;3.77;;;2.40;;
11422;SDS011;5768;51.476;7.210;2023-02-28T09:19:57;2.43;;;2.23;;
11422;SDS011;5768;51.476;7.210;2023-02-28T09:24:59;2.77;;;2.30;;
11422;SDS011;5768;51.476;7.210;2023-02-28T09:30:03;6.00;;;3.13;;
11422;SDS011;5768;51.476;7.210;2023-02-28T09:35:07;3.10;;;2.53;;
11422;SDS011;5768;51.476;7.210;2023-02-28T09:40:13;2.80;;;2.40;;
11422;SDS011;5768;51.476;7.210;2023-02-28T09:45:22;6.67;;;2.17;;
11422;SDS011;5768;51.476;7.210;2023-02-28T09:50:29;3.90;;;2.07;;
11422;SDS011;5768;51.476;7.210;2023-02-28T09:55:37;2.60;;;1.80;;
11422;SDS011;5768;51.476;7.210;2023-02-28T10:00:47;3.40;;;1.83;;
11422;SDS011;5768;51.476;7.210;2023-02-28T10:06:00;3.20;;;1.80;;
11422;SDS011;5768;51.476;7.210;2023-02-28T10:11:13;1.90;;;1.70;;
11422;SDS011;5768;51.476;7.210;2023-02-28T10:16:23;3.60;;;1.90;;
11422;SDS011;5768;51.476;7.210;2023-02-28T10:21:34;1.70;;;1.60;;
11422;SDS011;5768;51.476;7.210;2023-02-28T10:26:43;1.70;;;1.60;;
11422;SDS011;5768;51.476;7.210;2023-02-28T10:31:51;2.53;;;1.77;;
11422;SDS011;5768;51.476;7.210;2023-02-28T10:36:53;2.50;;;1.70;;
11422;SDS011;5768;51.476;7.210;2023-02-28T10:42:18;1.67;;;1.57;;
11422;SDS011;5768;51.476;7.210;2023-02-28T10:47:27;4.37;;;1.90;;
11422;SDS011;5768;51.476;7.210;2023-02-28T10:52:36;2.57;;;1.63;;
11422;SDS011;5768;51.476;7.210;2023-02-28T10:57:46;1.93;;;1.73;;
11422;SDS011;5768;51.476;7.210;2023-02-28T11:02:49;1.73;;;1.40;;
11422;SDS011;5768;51.476;7.210;2023-02-28T11:07:54;2.57;;;1.70;;
11422;SDS011;5768;51.476;7.210;2023-02-28T11:13:03;1.80;;;1.70;;
11422;SDS011;5768;51.476;7.210;2023-02-28T11:18:15;3.43;;;1.60;;
11422;SDS011;5768;51.476;7.210;2023-02-28T11:23:26;4.67;;;1.80;;
11422;SDS011;5768;51.476;7.210;2023-02-28T11:28:33;1.90;;;1.60;;
11422;SDS011;5768;51.476;7.210;2023-02-28T11:33:42;1.33;;;1.23;;
11422;SDS011;5768;51.476;7.210;2023-02-28T11:38:47;1.70;;;1.57;;
11422;SDS011;5768;51.476;7.210;2023-02-28T11:43:54;2.77;;;1.90;;
11422;SDS011;5768;51.476;7.210;2023-02-28T11:49:15;2.07;;;1.50;;
11422;SDS011;5768;51.476;7.210;2023-02-28T11:54:43;3.07;;;1.90;;
11422;SDS011;5768;51.476;7.210;2023-02-28T12:00:05;2.63;;;1.60;;
11422;SDS011;5768;51.476;7.210;2023-02-28T12:05:29;1.93;;;1.70;;
11422;SDS011;5768;51.476;7.210;2023-02-28T12:10:41;2.27;;;1.77;;
11422;SDS011;5768;51.476;7.210;2023-02-28T12:21:41;1.83;;;1.73;;
11422;SDS011;5768;51.476;7.210;2023-02-28T12:27:16;2.40;;;1.83;;
11422;SDS011;5768;51.476;7.210;2023-02-28T12:32:25;1.77;;;1.60;;
11422;SDS011;5768;51.476;7.210;2023-02-28T12:37:36;2.03;;;1.83;;
11422;SDS011;5768;51.476;7.210;2023-02-28T12:42:46;2.63;;;1.97;;
11422;SDS011;5768;51.476;7.210;2023-02-28T12:47:55;2.00;;;1.90;;
11422;SDS011;5768;51.476;7.210;2023-02-28T12:53:05;3.10;;;2.67;;
11422;SDS011;5768;51.476;7.210;2023-02-28T12:58:18;2.63;;;2.33;;
11422;SDS011;5768;51.476;7.210;2023-02-28T13:09:34;2.20;;;1.97;;
11422;SDS011;5768;51.476;7.210;2023-02-28T13:14:38;2.80;;;2.10;;
11422;SDS011;5768;51.476;7.210;2023-02-28T13:19:43;2.40;;;2.20;;
11422;SDS011;5768;51.476;7.210;2023-02-28T13:24:50;2.20;;;2.00;;
11422;SDS011;5768;51.476;7.210;2023-02-28T13:29:53;2.57;;;2.10;;
11422;SDS011;5768;51.476;7.210;2023-02-28T13:35:15;2.27;;;2.07;;
11422;SDS011;5768;51.476;7.210;2023-02-28T13:40:40;2.72;;;2.38;;
11422;SDS011;5768;51.476;7.210;2023-02-28T13:45:56;2.20;;;2.00;;
11422;SDS011;5768;51.476;7.210;2023-02-28T13:51:28;3.63;;;2.30;;
11422;SDS011;5768;51.476;7.210;2023-02-28T13:56:44;2.75;;;2.30;;
11422;SDS011;5768;51.476;7.210;2023-02-28T14:02:03;3.33;;;2.42;;
11422;SDS011;5768;51.476;7.210;2023-02-28T14:07:37;2.55;;;2.35;;
11422;SDS011;5768;51.476;7.210;2023-02-28T14:12:58;2.55;;;2.35;;
11422;SDS011;5768;51.476;7.210;2023-02-28T14:18:31;4.60;;;2.30;;
11422;SDS011;5768;51.476;7.210;2023-02-28T14:29:56;3.20;;;2.03;;
11422;SDS011;5768;51.476;7.210;2023-02-28T14:35:43;3.50;;;2.30;;
11422;SDS011;5768;51.476;7.210;2023-02-28T14:41:03;3.40;;;2.38;;
11422;SDS011;5768;51.476;7.210;2023-02-28T14:46:15;2.85;;;2.30;;
11422;SDS011;5768;51.476;7.210;2023-02-28T14:51:20;3.22;;;2.35;;
11422;SDS011;5768;51.476;7.210;2023-02-28T14:56:25;2.80;;;2.20;;
11422;SDS011;5768;51.476;7.210;2023-02-28T15:01:37;3.15;;;2.20;;
11422;SDS011;5768;51.476;7.210;2023-02-28T15:06:39;2.60;;;2.40;;
11422;SDS011;5768;51.476;7.210;2023-02-28T15:11:42;3.13;;;2.20;;
11422;SDS011;5768;51.476;7.210;2023-02-28T15:16:52;3.30;;;2.40;;
11422;SDS011;5768;51.476;7.210;2023-02-28T15:22:02;2.65;;;2.30;;
11422;SDS011;5768;51.476;7.210;2023-02-28T15:27:13;3.00;;;2.28;;
11422;SDS011;5768;51.476;7.210;2023-02-28T15:32:28;2.90;;;2.30;;
11422;SDS011;5768;51.476;7.210;2023-02-28T15:37:39;2.33;;;2.13;;
11422;SDS011;5768;51.476;7.210;2023-02-28T15:48:19;2.80;;;2.60;;
11422;SDS011;5768;51.476;7.210;2023-02-28T15:53:24;3.03;;;2.72;;
11422;SDS011;5768;51.476;7.210;2023-02-28T15:58:33;6.03;;;2.83;;
11422;SDS011;5768;51.476;7.210;2023-02-28T16:03:43;3.42;;;2.50;;
11422;SDS011;5768;51.476;7.210;2023-02-28T16:08:48;2.47;;;2.28;;
11422;SDS011;5768;51.476;7.210;2023-02-28T16:13:51;2.97;;;2.50;;
11422;SDS011;5768;51.476;7.210;2023-02-28T16:18:55;3.20;;;2.90;;
11422;SDS011;5768;51.476;7.210;2023-02-28T16:23:57;2.88;;;2.67;;
11422;SDS011;5768;51.476;7.210;2023-02-28T16:29:00;4.55;;;3.10;;
11422;SDS011;5768;51.476;7.210;2023-02-28T16:34:05;3.20;;;2.90;;
11422;SDS011;5768;51.476;7.210;2023-02-28T16:39:07;3.92;;;2.80;;
11422;SDS011;5768;51.476;7.210;2023-02-28T16:44:09;2.80;;;2.60;;
11422;SDS011;5768;51.476;7.210;2023-02-28T16:49:22;3.58;;;3.00;;
11422;SDS011;5768;51.476;7.210;2023-02-28T16:54:24;4.70;;;3.50;;
11422;SDS011;5768;51.476;7.210;2023-02-28T16:59:26;3.00;;;2.70;;
11422;SDS011;5768;51.476;7.210;2023-02-28T17:04:31;4.00;;;2.80;;
11422;SDS011;5768;51.476;7.210;2023-02-28T17:09:33;3.20;;;2.90;;
11422;SDS011;5768;51.476;7.210;2023-02-28T17:14:36;3.07;;;2.70;;
11422;SDS011;5768;51.476;7.210;2023-02-28T17:19:40;3.53;;;2.97;;
11422;SDS011;5768;51.476;7.210;2023-02-28T17:24:43;3.93;;;2.90;;
11422;SDS011;5768;51.476;7.210;2023-02-28T17:29:46;4.27;;;3.43;;
11422;SDS011;5768;51.476;7.210;2023-02-28T17:34:49;4.43;;;3.43;;
11422;SDS011;5768;51.476;7.210;2023-02-28T17:39:52;4.10;;;3.27;;
11422;SDS011;5768;51.476;7.210;2023-02-28T17:44:54;5.07;;;3.23;;
11422;SDS011;5768;51.476;7.210;2023-02-28T17:49:58;4.70;;;3.30;;
11422;SDS011;5768;51.476;7.210;2023-02-28T17:55:00;3.47;;;2.97;;
11422;SDS011;5768;51.476;7.210;2023-02-28T18:00:02;3.53;;;2.90;;
11422;SDS011;5768;51.476;7.210;2023-02-28T18:05:08;5.20;;;3.63;;
11422;SDS011;5768;51.476;7.210;2023-02-28T18:10:12;3.70;;;3.40;;
11422;SDS011;5768;51.476;7.210;2023-02-28T18:15:20;3.77;;;2.90;;
11422;SDS011;5768;51.476;7.210;2023-02-28T18:20:25;4.53;;;3.23;;
11422;SDS011;5768;51.476;7.210;2023-02-28T18:25:28;4.03;;;3.13;;
11422;SDS011;5768;51.476;7.210;2023-02-28T18:30:31;4.40;;;3.30;;
11422;SDS011;5768;51.476;7.210;2023-02-28T18:35:38;4.03;;;2.90;;
11422;SDS011;5768;51.476;7.210;2023-02-28T18:40:41;8.57;;;3.70;;
11422;SDS011;5768;51.476;7.210;2023-02-28T18:45:43;4.83;;;3.97;;
11422;SDS011;5768;51.476;7.210;2023-02-28T18:50:47;5.53;;;3.87;;
11422;SDS011;5768;51.476;7.210;2023-02-28T18:55:50;4.87;;;4.00;;
11422;SDS011;5768;51.476;7.210;2023-02-28T19:00:52;4.13;;;3.57;;
11422;SDS011;5768;51.476;7.210;2023-02-28T19:05:56;4.77;;;3.80;;
11422;SDS011;5768;51.476;7.210;2023-02-28T19:11:04;4.50;;;4.10;;
11422;SDS011;5768;51.476;7.210;2023-02-28T19:16:09;5.17;;;4.27;;
11422;SDS011;5768;51.476;7.210;2023-02-28T19:21:14;8.63;;;6.63;;
11422;SDS011;5768;51.476;7.210;2023-02-28T19:26:19;5.43;;;4.13;;
11422;SDS011;5768;51.476;7.210;2023-02-28T19:31:24;4.60;;;4.07;;
11422;SDS011;5768;51.476;7.210;2023-02-28T19:36:28;4.60;;;3.73;;
11422;SDS011;5768;51.476;7.210;2023-02-28T19:41:30;4.97;;;4.43;;
11422;SDS011;5768;51.476;7.210;2023-02-28T19:46:32;5.83;;;4.87;;
11422;SDS011;5768;51.476;7.210;2023-02-28T19:51:36;4.87;;;4.37;;
11422;SDS011;5768;51.476;7.210;2023-02-28T19:56:40;5.37;;;3.97;;
11422;SDS011;5768;51.476;7.210;2023-02-28T20:01:42;5.10;;;4.20;;
11422;SDS011;5768;51.476;7.210;2023-02-28T20:06:45;5.07;;;4.20;;
11422;SDS011;5768;51.476;7.210;2023-02-28T20:11:47;5.80;;;4.03;;
11422;SDS011;5768;51.476;7.210;2023-02-28T20:16:49;5.97;;;3.90;;
11422;SDS011;5768;51.476;7.210;2023-02-28T20:21:53;4.70;;;3.90;;
11422;SDS011;5768;51.476;7.210;2023-02-28T20:26:55;5.07;;;4.20;;
11422;SDS011;5768;51.476;7.210;2023-02-28T20:31:57;5.33;;;4.53;;
11422;SDS011;5768;51.476;7.210;2023-02-28T20:37:00;5.90;;;3.90;;
11422;SDS011;5768;51.476;7.210;2023-02-28T20:42:02;5.07;;;4.40;;
11422;SDS011;5768;51.476;7.210;2023-02-28T20:47:05;6.47;;;4.93;;
11422;SDS011;5768;51.476;7.210;2023-02-28T20:52:08;6.03;;;4.70;;
11422;SDS011;5768;51.476;7.210;2023-02-28T20:57:10;7.77;;;5.20;;
11422;SDS011;5768;51.476;7.210;2023-02-28T21:02:14;5.27;;;4.77;;
11422;SDS011;5768;51.476;7.210;2023-02-28T21:07:18;5.60;;;4.97;;
11422;SDS011;5768;51.476;7.210;2023-02-28T21:12:20;5.50;;;4.97;;
11422;SDS011;5768;51.476;7.210;2023-02-28T21:17:23;6.50;;;4.97;;
11422;SDS011;5768;51.476;7.210;2023-02-28T21:22:26;6.20;;;4.83;;
11422;SDS011;5768;51.476;7.210;2023-02-28T21:27:28;5.33;;;4.83;;
11422;SDS011;5768;51.476;7.210;2023-02-28T21:32:30;5.80;;;4.83;;
11422;SDS011;5768;51.476;7.210;2023-02-28T21:37:34;5.23;;;4.67;;
11422;SDS011;5768;51.476;7.210;2023-02-28T21:42:38;6.60;;;5.27;;
11422;SDS011;5768;51.476;7.210;2023-02-28T21:47:40;5.40;;;4.60;;
11422;SDS011;5768;51.476;7.210;2023-02-28T21:52:43;6.57;;;5.47;;
11422;SDS011;5768;51.476;7.210;2023-02-28T21:57:45;5.93;;;5.33;;
11422;SDS011;5768;51.476;7.210;2023-02-28T22:02:47;6.33;;;5.00;;
11422;SDS011;5768;51.476;7.210;2023-02-28T22:07:50;5.10;;;4.47;;
11422;SDS011;5768;51.476;7.210;2023-02-28T22:12:53;5.27;;;4.77;;
11422;SDS011;5768;51.476;7.210;2023-02-28T22:17:55;5.23;;;4.60;;
11422;SDS011;5768;51.476;7.210;2023-02-28T22:22:58;6.43;;;4.87;;
11422;SDS011;5768;51.476;7.210;2023-02-28T22:28:00;5.93;;;5.00;;
11422;SDS011;5768;51.476;7.210;2023-02-28T22:33:02;6.53;;;5.27;;
11422;SDS011;5768;51.476;7.210;2023-02-28T22:38:06;6.03;;;5.50;;
11422;SDS011;5768;51.476;7.210;2023-02-28T22:43:09;7.40;;;5.47;;
11422;SDS011;5768;51.476;7.210;2023-02-28T22:48:11;7.43;;;5.37;;
11422;SDS011;5768;51.476;7.210;2023-02-28T22:53:14;6.13;;;5.53;;
11422;SDS011;5768;51.476;7.210;2023-02-28T22:58:16;7.13;;;5.50;;
11422;SDS011;5768;51.476;7.210;2023-02-28T23:03:18;6.57;;;5.47;;
11422;SDS011;5768;51.476;7.210;2023-02-28T23:08:23;5.70;;;5.10;;
11422;SDS011;5768;51.476;7.210;2023-02-28T23:13:25;6.87;;;5.50;;
11422;SDS011;5768;51.476;7.210;2023-02-28T23:18:27;7.23;;;5.47;;
11422;SDS011;5768;51.476;7.210;2023-02-28T23:23:30;7.13;;;5.33;;
11422;SDS011;5768;51.476;7.210;2023-02-28T23:28:34;6.40;;;5.80;;
11422;SDS011;5768;51.476;7.210;2023-02-28T23:33:36;6.57;;;5.63;;
11422;SDS011;5768;51.476;7.210;2023-02-28T23:38:39;6.67;;;5.97;;
11422;SDS011;5768;51.476;7.210;2023-02-28T23:43:46;8.03;;;5.77;;
11422;SDS011;5768;51.476;7.210;2023-02-28T23:48:49;6.77;;;5.63;;
11422;SDS011;5768;51.476;7.210;2023-02-28T23:53:53;6.13;;;5.53;;
11422;SDS011;5768;51.476;7.210;2023-02-28T23:58:55;8.10;;;5.40;;
